createdAt,value
2016-06-27T00:00:50.693Z,15.8
2016-06-27T00:01:50.689Z,15.75
2016-06-27T00:02:50.693Z,15.57
2016-06-27T00:03:50.693Z,15.63
2016-06-27T00:04:50.695Z,15.62
2016-06-27T00:05:50.713Z,15.62
2016-06-27T00:06:50.707Z,15.62
2016-06-27T00:07:50.697Z,15.63
2016-06-27T00:08:50.718Z,15.6
2016-06-27T00:09:50.705Z,15.57
2016-06-27T00:10:50.699Z,15.45
2016-06-27T00:11:50.710Z,15.51
2016-06-27T00:12:50.718Z,15.41
2016-06-27T00:13:50.715Z,15.54
2016-06-27T00:14:50.717Z,15.5
2016-06-27T00:15:50.715Z,15.5
2016-06-27T00:16:50.724Z,15.43
2016-06-27T00:17:50.720Z,15.37
2016-06-27T00:18:50.714Z,15.44
2016-06-27T00:19:50.718Z,15.33
2016-06-27T00:20:50.725Z,15.45
2016-06-27T00:21:50.130Z,15.44
2016-06-27T00:22:50.737Z,15.47
2016-06-27T00:23:50.729Z,15.48
2016-06-27T00:24:50.722Z,15.47
2016-06-27T00:25:50.747Z,15.47
2016-06-27T00:26:50.723Z,15.45
2016-06-27T00:27:50.735Z,15.59
2016-06-27T00:28:50.730Z,15.48
2016-06-27T00:29:50.741Z,15.5
2016-06-27T00:30:50.740Z,15.55
2016-06-27T00:31:50.738Z,15.54
2016-06-27T00:32:50.736Z,15.45
2016-06-27T00:33:50.763Z,15.54
2016-06-27T00:34:50.740Z,15.6
2016-06-27T00:35:50.756Z,15.54
2016-06-27T00:36:50.755Z,15.6
2016-06-27T00:37:50.758Z,15.59
2016-06-27T00:38:50.767Z,15.59
2016-06-27T00:39:50.743Z,15.59
2016-06-27T00:40:50.758Z,15.62
2016-06-27T00:41:50.745Z,15.78
2016-06-27T00:42:50.751Z,15.63
2016-06-27T00:43:50.758Z,15.72
2016-06-27T00:44:50.761Z,15.69
2016-06-27T00:45:50.755Z,15.69
2016-06-27T00:46:50.763Z,15.78
2016-06-27T00:47:50.776Z,15.67
2016-06-27T00:48:50.768Z,15.76
2016-06-27T00:49:50.754Z,15.75
2016-06-27T00:50:50.769Z,15.8
2016-06-27T00:51:50.785Z,15.83
2016-06-27T00:52:50.768Z,15.87
2016-06-27T00:53:50.797Z,15.84
2016-06-27T00:54:50.815Z,15.88
2016-06-27T00:55:50.792Z,15.87
2016-06-27T00:56:50.778Z,15.84
2016-06-27T00:57:50.826Z,15.88
2016-06-27T00:58:50.788Z,15.85
2016-06-27T00:59:50.784Z,15.84
2016-06-27T01:00:50.791Z,15.84
2016-06-27T01:01:50.805Z,15.81
2016-06-27T01:02:50.783Z,15.81
2016-06-27T01:03:50.805Z,15.8
2016-06-27T01:04:50.796Z,15.8
2016-06-27T01:05:50.192Z,15.73
2016-06-27T01:06:50.850Z,15.72
2016-06-27T01:07:50.799Z,15.72
2016-06-27T01:08:50.834Z,15.75
2016-06-27T01:09:50.804Z,15.7
2016-06-27T01:10:50.822Z,15.69
2016-06-27T01:11:50.795Z,15.69
2016-06-27T01:12:50.805Z,15.72
2016-06-27T01:13:50.806Z,15.69
2016-06-27T01:14:50.814Z,15.73
2016-06-27T01:15:50.820Z,15.6
2016-06-27T01:16:50.831Z,15.62
2016-06-27T01:17:50.882Z,15.63
2016-06-27T01:18:50.828Z,15.62
2016-06-27T01:19:50.825Z,15.57
2016-06-27T01:20:50.826Z,15.5
2016-06-27T01:21:50.840Z,15.47
2016-06-27T01:22:50.836Z,15.45
2016-06-27T01:23:50.822Z,15.39
2016-06-27T01:24:50.824Z,15.3
2016-06-27T01:25:50.835Z,15.45
2016-06-27T01:26:50.842Z,15.37
2016-06-27T01:27:50.834Z,15.36
2016-06-27T01:28:50.818Z,15.33
2016-06-27T01:29:50.838Z,15.33
2016-06-27T01:30:50.829Z,15.22
2016-06-27T01:31:50.846Z,15.26
2016-06-27T01:32:50.846Z,15.22
2016-06-27T01:33:50.842Z,15.12
2016-06-27T01:34:50.856Z,15.12
2016-06-27T01:35:50.862Z,15.1
2016-06-27T01:36:50.853Z,15.17
2016-06-27T01:37:50.863Z,15.07
2016-06-27T01:38:50.857Z,15.12
2016-06-27T01:39:50.853Z,15.14
2016-06-27T01:40:50.854Z,15.14
2016-06-27T01:41:50.855Z,15.08
2016-06-27T01:42:50.864Z,15.02
2016-06-27T01:43:50.850Z,15.1
2016-06-27T01:44:50.872Z,15.08
2016-06-27T01:45:50.888Z,15.05
2016-06-27T01:46:50.878Z,14.97
2016-06-27T01:47:50.882Z,15.05
2016-06-27T01:48:50.860Z,15.02
2016-06-27T01:49:50.856Z,14.93
2016-06-27T01:50:50.863Z,14.9
2016-06-27T01:51:50.883Z,14.96
2016-06-27T01:52:50.877Z,14.96
2016-06-27T01:53:50.879Z,14.93
2016-06-27T01:54:50.877Z,14.96
2016-06-27T01:55:50.890Z,14.94
2016-06-27T01:56:50.885Z,14.9
2016-06-27T01:57:50.904Z,14.96
2016-06-27T01:58:50.876Z,14.99
2016-06-27T01:59:50.888Z,14.97
2016-06-27T02:00:50.886Z,15
2016-06-27T02:01:50.893Z,14.93
2016-06-27T02:02:50.903Z,14.92
2016-06-27T02:03:50.880Z,14.92
2016-06-27T02:04:51.118Z,14.87
2016-06-27T02:05:50.885Z,14.81
2016-06-27T02:06:50.889Z,14.87
2016-06-27T02:07:50.884Z,14.87
2016-06-27T02:08:50.903Z,14.82
2016-06-27T02:09:50.883Z,14.81
2016-06-27T02:10:50.894Z,14.85
2016-06-27T02:11:50.899Z,14.77
2016-06-27T02:12:50.894Z,14.71
2016-06-27T02:13:50.888Z,14.73
2016-06-27T02:14:50.906Z,14.68
2016-06-27T02:15:50.922Z,14.67
2016-06-27T02:16:50.909Z,14.68
2016-06-27T02:17:50.914Z,14.73
2016-06-27T02:18:50.905Z,14.74
2016-06-27T02:19:50.910Z,14.71
2016-06-27T02:20:50.920Z,14.7
2016-06-27T02:21:50.916Z,14.7
2016-06-27T02:22:50.914Z,14.7
2016-06-27T02:23:50.948Z,14.67
2016-06-27T02:24:50.936Z,14.78
2016-06-27T02:25:50.918Z,14.67
2016-06-27T02:26:50.922Z,14.62
2016-06-27T02:27:50.924Z,14.66
2016-06-27T02:28:50.920Z,14.78
2016-06-27T02:29:50.917Z,14.7
2016-06-27T02:30:50.931Z,14.74
2016-06-27T02:31:50.952Z,14.67
2016-06-27T02:32:50.929Z,14.73
2016-06-27T02:33:50.933Z,14.66
2016-06-27T02:34:50.935Z,14.66
2016-06-27T02:35:50.940Z,14.59
2016-06-27T02:36:50.929Z,14.53
2016-06-27T02:37:50.940Z,14.59
2016-06-27T02:38:50.952Z,14.49
2016-06-27T02:39:50.949Z,14.44
2016-06-27T02:40:50.947Z,14.43
2016-06-27T02:41:50.944Z,14.41
2016-06-27T02:42:50.939Z,14.34
2016-06-27T02:43:50.973Z,14.36
2016-06-27T02:44:50.963Z,14.37
2016-06-27T02:45:50.952Z,14.33
2016-06-27T02:46:50.941Z,14.41
2016-06-27T02:47:50.954Z,14.37
2016-06-27T02:48:50.953Z,14.36
2016-06-27T02:49:50.948Z,14.31
2016-06-27T02:50:50.948Z,14.38
2016-06-27T02:51:50.961Z,14.34
2016-06-27T02:52:50.955Z,14.44
2016-06-27T02:53:50.953Z,14.41
2016-06-27T02:54:50.962Z,14.37
2016-06-27T02:55:50.966Z,14.36
2016-06-27T02:56:50.967Z,14.45
2016-06-27T02:57:50.977Z,14.49
2016-06-27T02:58:50.972Z,14.52
2016-06-27T02:59:50.966Z,14.55
2016-06-27T03:00:50.964Z,14.55
2016-06-27T03:01:50.968Z,14.61
2016-06-27T03:02:50.965Z,14.59
2016-06-27T03:03:50.965Z,14.63
2016-06-27T03:04:50.996Z,14.62
2016-06-27T03:05:50.979Z,14.62
2016-06-27T03:06:50.962Z,14.58
2016-06-27T03:07:50.990Z,14.68
2016-06-27T03:08:51.011Z,14.63
2016-06-27T03:09:50.986Z,14.7
2016-06-27T03:10:50.986Z,14.68
2016-06-27T03:11:50.985Z,14.67
2016-06-27T03:12:50.991Z,14.66
2016-06-27T03:13:50.991Z,14.56
2016-06-27T03:14:50.991Z,14.58
2016-06-27T03:15:51.017Z,14.55
2016-06-27T03:16:51.079Z,14.58
2016-06-27T03:17:51.067Z,14.63
2016-06-27T03:18:51.006Z,14.62
2016-06-27T03:19:51.001Z,14.73
2016-06-27T03:20:51.018Z,14.7
2016-06-27T03:21:51.010Z,14.62
2016-06-27T03:22:51.008Z,14.73
2016-06-27T03:23:51.004Z,14.71
2016-06-27T03:24:51.014Z,14.66
2016-06-27T03:25:51.010Z,14.73
2016-06-27T03:26:51.011Z,14.71
2016-06-27T03:27:51.004Z,14.68
2016-06-27T03:28:51.007Z,14.71
2016-06-27T03:29:51.011Z,14.85
2016-06-27T03:30:51.027Z,14.82
2016-06-27T03:31:51.007Z,14.82
2016-06-27T03:32:51.027Z,14.89
2016-06-27T03:33:51.028Z,14.79
2016-06-27T03:34:51.015Z,14.87
2016-06-27T03:35:51.033Z,14.85
2016-06-27T03:36:51.035Z,14.79
2016-06-27T03:37:51.026Z,14.92
2016-06-27T03:38:51.037Z,14.96
2016-06-27T03:39:51.031Z,14.93
2016-06-27T03:40:51.050Z,14.93
2016-06-27T03:41:51.024Z,15
2016-06-27T03:42:51.056Z,14.92
2016-06-27T03:43:51.043Z,14.96
2016-06-27T03:44:51.065Z,14.9
2016-06-27T03:45:51.035Z,14.9
2016-06-27T03:46:51.060Z,14.93
2016-06-27T03:47:51.030Z,14.92
2016-06-27T03:48:51.029Z,14.89
2016-06-27T03:49:51.073Z,14.87
2016-06-27T03:50:51.031Z,14.86
2016-06-27T03:51:51.058Z,14.78
2016-06-27T03:52:51.041Z,14.82
2016-06-27T03:53:51.042Z,14.77
2016-06-27T03:54:51.046Z,14.81
2016-06-27T03:55:51.035Z,14.81
2016-06-27T03:56:51.050Z,14.82
2016-06-27T03:57:51.046Z,14.86
2016-06-27T03:58:51.093Z,14.85
2016-06-27T03:59:51.072Z,14.82
2016-06-27T04:00:51.065Z,14.79
2016-06-27T04:01:51.089Z,14.71
2016-06-27T04:02:51.056Z,14.78
2016-06-27T04:03:51.050Z,14.82
2016-06-27T04:04:51.068Z,14.85
2016-06-27T04:05:51.054Z,14.89
2016-06-27T04:06:51.071Z,14.87
2016-06-27T04:07:51.060Z,14.9
2016-06-27T04:08:51.100Z,14.93
2016-06-27T04:09:51.055Z,15
2016-06-27T04:10:51.061Z,15.05
2016-06-27T04:11:51.062Z,15.04
2016-06-27T04:12:51.083Z,15.04
2016-06-27T04:13:51.082Z,15.02
2016-06-27T04:14:51.071Z,15.07
2016-06-27T04:15:51.071Z,15.08
2016-06-27T04:16:51.074Z,15.19
2016-06-27T04:17:51.073Z,15.1
2016-06-27T04:18:51.070Z,15.14
2016-06-27T04:19:51.092Z,15.27
2016-06-27T04:20:51.086Z,15.26
2016-06-27T04:21:51.078Z,15.3
2016-06-27T04:22:51.098Z,15.22
2016-06-27T04:23:51.095Z,15.37
2016-06-27T04:24:51.088Z,15.29
2016-06-27T04:25:51.087Z,15.39
2016-06-27T04:26:51.094Z,15.44
2016-06-27T04:27:51.099Z,15.47
2016-06-27T04:28:51.098Z,15.5
2016-06-27T04:29:51.103Z,15.48
2016-06-27T04:30:51.095Z,15.47
2016-06-27T04:31:51.092Z,15.57
2016-06-27T04:32:51.117Z,15.63
2016-06-27T04:33:51.124Z,15.65
2016-06-27T04:34:51.107Z,15.69
2016-06-27T04:35:51.158Z,15.81
2016-06-27T04:36:51.093Z,15.81
2016-06-27T04:37:51.167Z,15.88
2016-06-27T04:38:51.099Z,15.87
2016-06-27T04:39:51.154Z,15.96
2016-06-27T04:40:51.119Z,15.96
2016-06-27T04:41:51.124Z,15.96
2016-06-27T04:42:51.119Z,16.09
2016-06-27T04:43:51.126Z,16.09
2016-06-27T04:44:51.130Z,16.22
2016-06-27T04:45:51.111Z,16.29
2016-06-27T04:46:51.132Z,16.31
2016-06-27T04:47:51.129Z,16.31
2016-06-27T04:48:51.149Z,16.41
2016-06-27T04:49:51.122Z,16.4
2016-06-27T04:50:51.140Z,16.47
2016-06-27T04:51:51.129Z,16.54
2016-06-27T04:52:51.145Z,16.54
2016-06-27T04:53:51.127Z,16.55
2016-06-27T04:54:51.121Z,16.64
2016-06-27T04:55:51.138Z,16.66
2016-06-27T04:56:51.129Z,16.76
2016-06-27T04:57:51.127Z,16.83
2016-06-27T04:58:51.149Z,16.89
2016-06-27T04:59:51.155Z,16.87
2016-06-27T05:00:51.141Z,16.95
2016-06-27T05:01:51.128Z,17.01
2016-06-27T05:02:51.138Z,17.16
2016-06-27T05:03:51.155Z,17.17
2016-06-27T05:04:51.151Z,17.14
2016-06-27T05:05:51.143Z,17.19
2016-06-27T05:06:51.152Z,17.27
2016-06-27T05:07:51.143Z,17.34
2016-06-27T05:08:51.148Z,17.37
2016-06-27T05:09:51.146Z,17.47
2016-06-27T05:10:50.553Z,17.63
2016-06-27T05:11:51.159Z,17.72
2016-06-27T05:12:51.166Z,17.72
2016-06-27T05:13:51.157Z,17.88
2016-06-27T05:14:51.167Z,17.94
2016-06-27T05:15:51.151Z,18
2016-06-27T05:16:51.170Z,18.06
2016-06-27T05:17:51.270Z,18.18
2016-06-27T05:18:51.171Z,18.21
2016-06-27T05:19:51.185Z,18.31
2016-06-27T05:20:51.174Z,18.45
2016-06-27T05:21:51.197Z,18.39
2016-06-27T05:22:51.171Z,18.46
2016-06-27T05:23:51.170Z,18.49
2016-06-27T05:24:51.168Z,18.64
2016-06-27T05:25:51.164Z,18.71
2016-06-27T05:26:51.176Z,18.68
2016-06-27T05:27:51.171Z,18.82
2016-06-27T05:28:51.725Z,18.96
2016-06-27T05:29:51.167Z,18.96
2016-06-27T05:30:51.197Z,18.96
2016-06-27T05:31:51.178Z,19.04
2016-06-27T05:32:51.179Z,19.04
2016-06-27T05:33:51.179Z,18.97
2016-06-27T05:34:51.200Z,19.07
2016-06-27T05:35:51.418Z,19.04
2016-06-27T05:36:51.181Z,19.35
2016-06-27T05:37:51.204Z,19.7
2016-06-27T05:38:51.175Z,20.32
2016-06-27T05:39:51.179Z,21.13
2016-06-27T05:40:51.192Z,21.81
2016-06-27T05:41:51.190Z,22.28
2016-06-27T05:42:51.199Z,22.55
2016-06-27T05:43:51.213Z,22.68
2016-06-27T05:44:51.214Z,22.71
2016-06-27T05:45:51.206Z,22.61
2016-06-27T05:46:51.186Z,22.56
2016-06-27T05:47:51.202Z,22.58
2016-06-27T05:48:51.207Z,22.53
2016-06-27T05:49:51.201Z,22.55
2016-06-27T05:50:51.187Z,22.61
2016-06-27T05:51:51.212Z,22.52
2016-06-27T05:52:51.216Z,22.26
2016-06-27T05:53:51.233Z,22.08
2016-06-27T05:54:51.215Z,21.81
2016-06-27T05:55:51.250Z,21.58
2016-06-27T05:56:51.216Z,21.44
2016-06-27T05:57:51.208Z,21.22
2016-06-27T05:58:51.215Z,21.05
2016-06-27T05:59:50.627Z,20.86
2016-06-27T06:00:51.224Z,20.7
2016-06-27T06:01:51.211Z,20.49
2016-06-27T06:02:51.232Z,20.24
2016-06-27T06:03:51.225Z,19.9
2016-06-27T06:04:51.250Z,19.87
2016-06-27T06:05:51.230Z,19.85
2016-06-27T06:06:51.227Z,19.92
2016-06-27T06:07:51.219Z,20
2016-06-27T06:08:51.232Z,19.96
2016-06-27T06:09:51.229Z,20.15
2016-06-27T06:10:51.226Z,20.29
2016-06-27T06:11:51.243Z,20.42
2016-06-27T06:12:51.230Z,20.78
2016-06-27T06:13:51.252Z,21.33
2016-06-27T06:14:51.235Z,21.78
2016-06-27T06:15:51.236Z,22.16
2016-06-27T06:16:51.234Z,22.46
2016-06-27T06:17:51.243Z,22.74
2016-06-27T06:18:51.238Z,22.86
2016-06-27T06:19:51.281Z,23.29
2016-06-27T06:20:51.273Z,23.58
2016-06-27T06:21:51.250Z,23.92
2016-06-27T06:22:51.249Z,24.11
2016-06-27T06:23:51.283Z,24.5
2016-06-27T06:24:51.261Z,25.26
2016-06-27T06:25:51.272Z,25.77
2016-06-27T06:26:51.250Z,26.22
2016-06-27T06:27:51.262Z,26.49
2016-06-27T06:28:51.258Z,26.79
2016-06-27T06:29:51.255Z,27.16
2016-06-27T06:30:51.266Z,27.6
2016-06-27T06:31:51.267Z,27.88
2016-06-27T06:32:51.267Z,28.18
2016-06-27T06:33:51.273Z,28.37
2016-06-27T06:34:51.262Z,28.55
2016-06-27T06:35:51.268Z,28.68
2016-06-27T06:36:51.292Z,28.64
2016-06-27T06:37:51.286Z,28.46
2016-06-27T06:38:51.283Z,28.28
2016-06-27T06:39:51.277Z,28.18
2016-06-27T06:40:51.279Z,28.46
2016-06-27T06:41:51.278Z,29.07
2016-06-27T06:42:51.285Z,29.8
2016-06-27T06:43:51.277Z,30.55
2016-06-27T06:44:51.290Z,31.33
2016-06-27T06:45:51.283Z,32.12
2016-06-27T06:46:51.321Z,32.66
2016-06-27T06:47:51.305Z,33.13
2016-06-27T06:48:51.292Z,33.36
2016-06-27T06:49:51.295Z,33.48
2016-06-27T06:50:51.298Z,33.6
2016-06-27T06:51:50.687Z,33.44
2016-06-27T06:52:51.301Z,33.22
2016-06-27T06:53:51.296Z,33.05
2016-06-27T06:54:51.298Z,33.01
2016-06-27T06:55:51.295Z,33.04
2016-06-27T06:56:51.299Z,32.86
2016-06-27T06:57:51.311Z,32.61
2016-06-27T06:58:51.287Z,32.09
2016-06-27T06:59:51.330Z,31.66
2016-06-27T07:00:51.317Z,31.37
2016-06-27T07:01:51.339Z,31.33
2016-06-27T07:02:51.311Z,31.41
2016-06-27T07:03:51.308Z,31.72
2016-06-27T07:04:50.721Z,32.22
2016-06-27T07:06:19.874Z,33.08
2016-06-27T07:06:51.311Z,33.4
2016-06-27T07:07:51.322Z,34.06
2016-06-27T07:08:51.314Z,34.93
2016-06-27T07:09:51.330Z,35.56
2016-06-27T07:10:51.319Z,36.11
2016-06-27T07:11:51.361Z,36.31
2016-06-27T07:12:51.325Z,36.33
2016-06-27T07:13:51.361Z,36.17
2016-06-27T07:14:51.357Z,35.84
2016-06-27T07:15:51.567Z,35.45
2016-06-27T07:16:51.349Z,35.08
2016-06-27T07:17:51.447Z,35.1
2016-06-27T07:18:51.334Z,34.91
2016-06-27T07:19:51.346Z,34.78
2016-06-27T07:20:51.336Z,34.5
2016-06-27T07:21:50.752Z,34.19
2016-06-27T07:22:51.353Z,33.76
2016-06-27T07:23:51.366Z,33.16
2016-06-27T07:24:51.387Z,32.82
2016-06-27T07:25:51.365Z,32.76
2016-06-27T07:26:51.367Z,32.86
2016-06-27T07:27:51.356Z,33.04
2016-06-27T07:28:51.366Z,33.31
2016-06-27T07:29:51.376Z,33.55
2016-06-27T07:30:51.366Z,33.95
2016-06-27T07:31:51.395Z,34.26
2016-06-27T07:32:51.372Z,34.7
2016-06-27T07:33:51.369Z,34.82
2016-06-27T07:34:51.383Z,35.04
2016-06-27T07:35:51.383Z,35.07
2016-06-27T07:36:51.373Z,35.07
2016-06-27T07:37:51.367Z,34.66
2016-06-27T07:38:51.375Z,34.47
2016-06-27T07:39:51.403Z,34.33
2016-06-27T07:40:51.386Z,34.28
2016-06-27T07:41:51.393Z,34.06
2016-06-27T07:42:51.393Z,34.02
2016-06-27T07:43:51.396Z,34.11
2016-06-27T07:44:51.410Z,34.1
2016-06-27T07:45:51.394Z,34.24
2016-06-27T07:46:51.430Z,34.22
2016-06-27T07:47:51.409Z,34.31
2016-06-27T07:48:51.430Z,34.35
2016-06-27T07:49:51.405Z,34.44
2016-06-27T07:50:51.421Z,34.59
2016-06-27T07:51:51.410Z,34.71
2016-06-27T07:52:51.416Z,34.73
2016-06-27T07:53:51.422Z,34.78
2016-06-27T07:54:51.422Z,34.82
2016-06-27T07:55:51.426Z,34.88
2016-06-27T07:56:51.427Z,34.89
2016-06-27T07:57:51.422Z,35.12
2016-06-27T07:58:51.435Z,35.23
2016-06-27T07:59:51.430Z,35.25
2016-06-27T08:00:51.447Z,35.27
2016-06-27T08:01:51.568Z,35.12
2016-06-27T08:02:51.442Z,34.78
2016-06-27T08:03:51.459Z,34.62
2016-06-27T08:04:51.440Z,34.63
2016-06-27T08:05:51.443Z,34.79
2016-06-27T08:06:51.480Z,35
2016-06-27T08:07:51.441Z,35.2
2016-06-27T08:08:51.460Z,35.44
2016-06-27T08:09:51.441Z,35.61
2016-06-27T08:10:51.450Z,35.81
2016-06-27T08:11:51.483Z,35.93
2016-06-27T08:12:51.471Z,35.94
2016-06-27T08:13:51.458Z,36.11
2016-06-27T08:14:51.452Z,36
2016-06-27T08:15:51.473Z,35.79
2016-06-27T08:16:51.478Z,35.68
2016-06-27T08:17:51.454Z,35.54
2016-06-27T08:18:51.463Z,35.23
2016-06-27T08:19:51.468Z,35.08
2016-06-27T08:20:51.474Z,34.81
2016-06-27T08:21:51.465Z,34.69
2016-06-27T08:22:51.471Z,34.41
2016-06-27T08:23:51.476Z,34.26
2016-06-27T08:24:51.482Z,34.19
2016-06-27T08:25:51.482Z,34.04
2016-06-27T08:26:51.507Z,34.04
2016-06-27T08:27:51.482Z,34.19
2016-06-27T08:28:51.487Z,34.28
2016-06-27T08:29:51.500Z,34.41
2016-06-27T08:30:51.565Z,34.59
2016-06-27T08:31:51.569Z,34.63
2016-06-27T08:32:51.499Z,34.83
2016-06-27T08:33:51.503Z,35.1
2016-06-27T08:34:51.499Z,35.18
2016-06-27T08:35:51.511Z,35.31
2016-06-27T08:36:51.506Z,35.18
2016-06-27T08:37:51.539Z,35.1
2016-06-27T08:38:51.517Z,34.82
2016-06-27T08:39:51.574Z,34.89
2016-06-27T08:40:51.519Z,35.04
2016-06-27T08:41:51.514Z,35.07
2016-06-27T08:42:51.520Z,34.91
2016-06-27T08:43:50.914Z,34.79
2016-06-27T08:44:51.549Z,34.44
2016-06-27T08:45:51.524Z,34.07
2016-06-27T08:46:51.527Z,33.5
2016-06-27T08:47:51.542Z,32.94
2016-06-27T08:48:51.527Z,32.34
2016-06-27T08:49:51.544Z,31.89
2016-06-27T08:50:51.547Z,31.59
2016-06-27T08:51:51.553Z,31.2
2016-06-27T08:52:51.544Z,30.93
2016-06-27T08:53:51.547Z,30.78
2016-06-27T08:54:51.550Z,30.49
2016-06-27T08:55:51.557Z,30.32
2016-06-27T08:56:51.567Z,30.55
2016-06-27T08:57:51.557Z,30.77
2016-06-27T08:58:51.569Z,31.35
2016-06-27T08:59:51.564Z,31.86
2016-06-27T09:00:51.565Z,32.31
2016-06-27T09:01:51.698Z,32.82
2016-06-27T09:02:51.712Z,33.19
2016-06-27T09:03:51.737Z,33.4
2016-06-27T09:04:51.714Z,33.31
2016-06-27T09:05:51.704Z,33.12
2016-06-27T09:06:51.722Z,32.95
2016-06-27T09:07:51.735Z,32.88
2016-06-27T09:08:51.710Z,32.83
2016-06-27T09:09:51.703Z,32.91
2016-06-27T09:10:51.706Z,33.16
2016-06-27T09:11:51.700Z,33.36
2016-06-27T09:12:51.715Z,33.69
2016-06-27T09:13:51.713Z,34.1
2016-06-27T09:14:51.800Z,34.33
2016-06-27T09:15:51.731Z,34.76
2016-06-27T09:16:51.728Z,34.75
2016-06-27T09:17:51.734Z,34.73
2016-06-27T09:18:51.716Z,34.63
2016-06-27T09:19:51.758Z,34.76
2016-06-27T09:20:51.738Z,34.91
2016-06-27T09:21:51.734Z,34.88
2016-06-27T09:22:51.740Z,34.81
2016-06-27T09:23:51.771Z,34.79
2016-06-27T09:24:51.790Z,34.78
2016-06-27T09:25:51.746Z,34.6
2016-06-27T09:26:51.751Z,34.53
2016-06-27T09:27:51.757Z,34.37
2016-06-27T09:28:51.750Z,34.29
2016-06-27T09:29:51.754Z,34.28
2016-06-27T09:30:51.780Z,34.29
2016-06-27T09:31:51.763Z,34.26
2016-06-27T09:32:51.764Z,34.21
2016-06-27T09:33:51.765Z,34.07
2016-06-27T09:34:51.769Z,34.07
2016-06-27T09:35:51.772Z,33.94
2016-06-27T09:36:51.766Z,33.88
2016-06-27T09:37:51.179Z,33.79
2016-06-27T09:38:51.802Z,33.58
2016-06-27T09:39:51.796Z,33.38
2016-06-27T09:40:51.777Z,33.28
2016-06-27T09:41:51.790Z,32.97
2016-06-27T09:42:51.789Z,32.56
2016-06-27T09:43:51.794Z,32.11
2016-06-27T09:44:51.785Z,31.7
2016-06-27T09:45:51.788Z,31.37
2016-06-27T09:46:51.802Z,30.98
2016-06-27T09:47:51.801Z,30.58
2016-06-27T09:48:51.800Z,30.26
2016-06-27T09:49:51.811Z,30.17
2016-06-27T09:50:51.798Z,29.98
2016-06-27T09:51:51.825Z,29.8
2016-06-27T09:52:51.832Z,29.74
2016-06-27T09:53:51.810Z,29.62
2016-06-27T09:54:51.831Z,29.53
2016-06-27T09:55:51.819Z,29.37
2016-06-27T09:56:51.803Z,29.39
2016-06-27T09:57:51.827Z,29.24
2016-06-27T09:58:51.831Z,29.27
2016-06-27T09:59:51.839Z,29.3
2016-06-27T10:00:51.839Z,29.2
2016-06-27T10:01:51.962Z,29
2016-06-27T10:02:51.835Z,28.92
2016-06-27T10:03:51.848Z,28.83
2016-06-27T10:04:51.847Z,28.84
2016-06-27T10:05:51.841Z,28.78
2016-06-27T10:06:51.861Z,28.78
2016-06-27T10:07:51.854Z,28.65
2016-06-27T10:08:51.849Z,28.59
2016-06-27T10:09:51.848Z,28.56
2016-06-27T10:10:51.867Z,28.52
2016-06-27T10:11:51.866Z,28.4
2016-06-27T10:12:51.867Z,28.33
2016-06-27T10:13:51.866Z,28.3
2016-06-27T10:14:51.871Z,28.28
2016-06-27T10:15:51.869Z,28.18
2016-06-27T10:16:51.864Z,27.93
2016-06-27T10:17:52.039Z,27.91
2016-06-27T10:18:51.872Z,27.79
2016-06-27T10:19:51.905Z,27.81
2016-06-27T10:20:51.884Z,27.78
2016-06-27T10:21:51.888Z,27.81
2016-06-27T10:22:51.903Z,27.81
2016-06-27T10:23:51.887Z,27.83
2016-06-27T10:24:51.913Z,27.82
2016-06-27T10:25:51.905Z,27.82
2016-06-27T10:26:51.301Z,27.75
2016-06-27T10:27:51.904Z,27.58
2016-06-27T10:28:51.903Z,27.55
2016-06-27T10:29:51.930Z,27.57
2016-06-27T10:30:51.898Z,27.57
2016-06-27T10:31:51.919Z,27.38
2016-06-27T10:32:51.918Z,27.41
2016-06-27T10:33:51.929Z,27.41
2016-06-27T10:34:51.927Z,27.47
2016-06-27T10:35:51.918Z,27.53
2016-06-27T10:36:51.935Z,27.71
2016-06-27T10:37:51.924Z,27.81
2016-06-27T10:38:51.931Z,27.81
2016-06-27T10:39:51.955Z,27.76
2016-06-27T10:40:51.935Z,27.71
2016-06-27T10:41:51.932Z,27.55
2016-06-27T10:42:51.945Z,27.48
2016-06-27T10:43:51.943Z,27.44
2016-06-27T10:44:51.960Z,27.52
2016-06-27T10:45:51.951Z,27.58
2016-06-27T10:46:51.356Z,27.63
2016-06-27T10:47:51.946Z,27.66
2016-06-27T10:48:51.946Z,27.68
2016-06-27T10:49:51.965Z,27.58
2016-06-27T10:50:51.946Z,27.63
2016-06-27T10:51:51.959Z,27.57
2016-06-27T10:52:51.947Z,27.41
2016-06-27T10:53:51.961Z,27.45
2016-06-27T10:54:51.960Z,27.37
2016-06-27T10:55:51.977Z,27.3
2016-06-27T10:56:51.973Z,27.3
2016-06-27T10:57:52.005Z,27.22
2016-06-27T10:58:51.998Z,27.2
2016-06-27T10:59:51.987Z,27.18
2016-06-27T11:00:51.979Z,27.16
2016-06-27T11:01:51.995Z,27.16
2016-06-27T11:02:51.993Z,27.2
2016-06-27T11:03:52.002Z,27.2
2016-06-27T11:04:52.008Z,27.3
2016-06-27T11:05:51.988Z,27.34
2016-06-27T11:06:51.989Z,27.4
2016-06-27T11:07:52.003Z,27.45
2016-06-27T11:08:52.040Z,27.45
2016-06-27T11:09:51.998Z,27.44
2016-06-27T11:10:52.007Z,27.34
2016-06-27T11:11:52.012Z,27.34
2016-06-27T11:12:52.007Z,27.33
2016-06-27T11:13:52.029Z,27.26
2016-06-27T11:14:52.034Z,27.23
2016-06-27T11:15:52.022Z,27.13
2016-06-27T11:16:52.016Z,27.25
2016-06-27T11:17:52.023Z,27.16
2016-06-27T11:18:52.030Z,27.16
2016-06-27T11:19:52.027Z,27.18
2016-06-27T11:20:52.029Z,27.2
2016-06-27T11:21:52.032Z,27.2
2016-06-27T11:22:52.037Z,27.25
2016-06-27T11:23:52.055Z,27.19
2016-06-27T11:24:52.034Z,27.1
2016-06-27T11:25:52.056Z,27.01
2016-06-27T11:26:52.046Z,27.03
2016-06-27T11:27:52.040Z,26.98
2016-06-27T11:28:52.047Z,26.92
2016-06-27T11:29:52.103Z,26.92
2016-06-27T11:30:52.055Z,26.7
2016-06-27T11:31:52.061Z,26.73
2016-06-27T11:32:52.092Z,26.68
2016-06-27T11:33:52.087Z,26.66
2016-06-27T11:34:52.057Z,26.67
2016-06-27T11:35:52.085Z,26.66
2016-06-27T11:36:52.078Z,26.63
2016-06-27T11:37:52.083Z,26.64
2016-06-27T11:38:52.079Z,26.55
2016-06-27T11:39:52.090Z,26.56
2016-06-27T11:40:52.078Z,26.55
2016-06-27T11:41:52.091Z,26.6
2016-06-27T11:42:52.067Z,26.68
2016-06-27T11:43:52.090Z,26.7
2016-06-27T11:44:52.099Z,26.68
2016-06-27T11:45:52.093Z,26.76
2016-06-27T11:46:52.106Z,26.81
2016-06-27T11:47:52.094Z,26.74
2016-06-27T11:48:52.143Z,26.74
2016-06-27T11:49:52.107Z,26.73
2016-06-27T11:50:52.089Z,26.73
2016-06-27T11:51:52.113Z,26.6
2016-06-27T11:52:52.112Z,26.6
2016-06-27T11:53:52.111Z,26.45
2016-06-27T11:54:52.113Z,26.34
2016-06-27T11:55:52.106Z,26.27
2016-06-27T11:56:52.102Z,26.26
2016-06-27T11:57:52.152Z,26.22
2016-06-27T11:58:52.109Z,26.06
2016-06-27T11:59:52.123Z,26.13
2016-06-27T12:00:52.129Z,26.22
2016-06-27T12:01:52.139Z,26.1
2016-06-27T12:02:52.115Z,26.08
2016-06-27T12:03:52.132Z,26.03
2016-06-27T12:04:52.124Z,25.91
2016-06-27T12:05:52.162Z,25.85
2016-06-27T12:06:52.131Z,25.85
2016-06-27T12:07:52.134Z,25.88
2016-06-27T12:08:52.125Z,25.86
2016-06-27T12:09:52.144Z,25.83
2016-06-27T12:10:52.143Z,25.81
2016-06-27T12:11:52.165Z,25.83
2016-06-27T12:12:52.138Z,25.81
2016-06-27T12:13:52.155Z,25.77
2016-06-27T12:14:52.157Z,25.76
2016-06-27T12:15:52.154Z,25.78
2016-06-27T12:16:52.148Z,25.86
2016-06-27T12:17:52.308Z,25.88
2016-06-27T12:18:52.181Z,25.88
2016-06-27T12:19:52.176Z,25.86
2016-06-27T12:20:52.187Z,25.74
2016-06-27T12:21:52.177Z,25.8
2016-06-27T12:22:52.170Z,25.76
2016-06-27T12:23:52.183Z,25.77
2016-06-27T12:24:52.183Z,25.71
2016-06-27T12:25:52.177Z,25.62
2016-06-27T12:26:52.196Z,25.66
2016-06-27T12:27:52.186Z,25.63
2016-06-27T12:28:52.189Z,25.56
2016-06-27T12:29:52.198Z,25.56
2016-06-27T12:30:52.255Z,25.52
2016-06-27T12:31:52.194Z,25.49
2016-06-27T12:32:52.184Z,25.58
2016-06-27T12:33:52.205Z,25.62
2016-06-27T12:34:52.196Z,25.7
2016-06-27T12:35:52.240Z,25.61
2016-06-27T12:36:52.205Z,25.67
2016-06-27T12:37:52.204Z,25.7
2016-06-27T12:38:52.208Z,25.7
2016-06-27T12:39:52.217Z,25.58
2016-06-27T12:40:52.232Z,25.51
2016-06-27T12:41:52.209Z,25.54
2016-06-27T12:42:52.222Z,25.43
2016-06-27T12:43:52.224Z,25.44
2016-06-27T12:44:52.237Z,25.54
2016-06-27T12:45:52.221Z,25.48
2016-06-27T12:46:52.235Z,25.49
2016-06-27T12:47:52.227Z,25.48
2016-06-27T12:48:52.251Z,25.36
2016-06-27T12:49:52.236Z,25.34
2016-06-27T12:50:52.251Z,25.26
2016-06-27T12:51:52.236Z,25.25
2016-06-27T12:52:52.239Z,25.25
2016-06-27T12:53:52.251Z,25.33
2016-06-27T12:54:52.251Z,25.29
2016-06-27T12:55:52.260Z,25.37